sensor_id;sensor_type;location;lat;lon;timestamp;pressure;altitude;pressure_sealevel;temperature;humidity
42603;BME280;28233;55.748;48.752;2023-03-14T00:00:13;99420.94;;;-5.06;89.23
42603;BME280;28233;55.748;48.752;2023-03-14T00:02:16;99421.94;;;-5.00;89.87
42603;BME280;28233;55.748;48.752;2023-03-14T00:04:19;99421.25;;;-4.96;89.68
42603;BME280;28233;55.748;48.752;2023-03-14T00:06:40;99428.03;;;-4.93;88.62
42603;BME280;28233;55.748;48.752;2023-03-14T00:09:02;99425.13;;;-4.92;89.03
42603;BME280;28233;55.748;48.752;2023-03-14T00:11:23;99421.19;;;-4.89;88.99
42603;BME280;28233;55.748;48.752;2023-03-14T00:13:49;99432.88;;;-4.83;89.05
42603;BME280;28233;55.748;48.752;2023-03-14T00:16:12;99438.38;;;-4.78;88.36
42603;BME280;28233;55.748;48.752;2023-03-14T00:18:34;99434.22;;;-4.74;89.43
42603;BME280;28233;55.748;48.752;2023-03-14T00:20:57;99439.78;;;-4.76;85.86
42603;BME280;28233;55.748;48.752;2023-03-14T00:23:19;99451.50;;;-4.70;88.75
42603;BME280;28233;55.748;48.752;2023-03-14T00:25:40;99447.75;;;-4.69;88.29
42603;BME280;28233;55.748;48.752;2023-03-14T00:28:01;99449.63;;;-4.70;87.66
42603;BME280;28233;55.748;48.752;2023-03-14T00:30:22;99457.22;;;-4.67;88.04
42603;BME280;28233;55.748;48.752;2023-03-14T00:32:43;99466.53;;;-4.69;88.15
42603;BME280;28233;55.748;48.752;2023-03-14T00:35:05;99467.78;;;-4.72;87.59
42603;BME280;28233;55.748;48.752;2023-03-14T00:37:27;99469.53;;;-4.77;87.21
42603;BME280;28233;55.748;48.752;2023-03-14T00:39:50;99480.66;;;-4.80;85.26
42603;BME280;28233;55.748;48.752;2023-03-14T00:42:11;99479.47;;;-4.84;86.70
42603;BME280;28233;55.748;48.752;2023-03-14T00:44:32;99473.59;;;-4.93;88.11
42603;BME280;28233;55.748;48.752;2023-03-14T00:46:54;99481.47;;;-4.98;88.99
42603;BME280;28233;55.748;48.752;2023-03-14T00:49:16;99486.66;;;-5.03;88.23
42603;BME280;28233;55.748;48.752;2023-03-14T00:51:38;99477.66;;;-5.09;88.82
42603;BME280;28233;55.748;48.752;2023-03-14T00:53:41;99487.56;;;-5.10;89.56
42603;BME280;28233;55.748;48.752;2023-03-14T00:55:44;99493.56;;;-5.14;88.51
42603;BME280;28233;55.748;48.752;2023-03-14T00:57:47;99490.91;;;-5.14;88.41
42603;BME280;28233;55.748;48.752;2023-03-14T00:59:51;99489.63;;;-5.12;89.41
42603;BME280;28233;55.748;48.752;2023-03-14T01:01:54;99492.75;;;-5.15;89.24
42603;BME280;28233;55.748;48.752;2023-03-14T01:03:56;99490.28;;;-5.16;89.52
42603;BME280;28233;55.748;48.752;2023-03-14T01:06:20;99488.88;;;-5.19;89.15
42603;BME280;28233;55.748;48.752;2023-03-14T01:08:24;99494.69;;;-5.22;89.91
42603;BME280;28233;55.748;48.752;2023-03-14T01:10:26;99501.06;;;-5.23;90.48
42603;BME280;28233;55.748;48.752;2023-03-14T01:12:29;99501.50;;;-5.26;89.95
42603;BME280;28233;55.748;48.752;2023-03-14T01:14:32;99503.59;;;-5.28;89.56
42603;BME280;28233;55.748;48.752;2023-03-14T01:16:34;99507.53;;;-5.31;89.85
42603;BME280;28233;55.748;48.752;2023-03-14T01:18:56;99503.84;;;-5.36;90.34
42603;BME280;28233;55.748;48.752;2023-03-14T01:21:26;99512.91;;;-5.37;90.43
42603;BME280;28233;55.748;48.752;2023-03-14T01:23:49;99521.41;;;-5.40;90.51
42603;BME280;28233;55.748;48.752;2023-03-14T01:26:12;99529.63;;;-5.42;87.60
42603;BME280;28233;55.748;48.752;2023-03-14T01:28:33;99525.97;;;-5.47;87.20
42603;BME280;28233;55.748;48.752;2023-03-14T01:30:54;99541.03;;;-5.53;89.55
42603;BME280;28233;55.748;48.752;2023-03-14T01:32:57;99536.72;;;-5.54;89.93
42603;BME280;28233;55.748;48.752;2023-03-14T01:34:59;99537.19;;;-5.57;89.79
42603;BME280;28233;55.748;48.752;2023-03-14T01:37:04;99538.19;;;-5.58;89.46
42603;BME280;28233;55.748;48.752;2023-03-14T01:39:07;99536.31;;;-5.58;89.28
42603;BME280;28233;55.748;48.752;2023-03-14T01:41:23;99540.06;;;-5.59;88.84
42603;BME280;28233;55.748;48.752;2023-03-14T01:43:26;99545.41;;;-5.59;89.84
42603;BME280;28233;55.748;48.752;2023-03-14T01:48:11;99549.09;;;-5.60;88.33
42603;BME280;28233;55.748;48.752;2023-03-14T01:50:13;99562.09;;;-5.57;88.58
42603;BME280;28233;55.748;48.752;2023-03-14T01:52:20;99558.34;;;-5.56;88.20
42603;BME280;28233;55.748;48.752;2023-03-14T01:56:30;99564.31;;;-5.54;87.60
42603;BME280;28233;55.748;48.752;2023-03-14T01:58:33;99551.97;;;-5.55;87.64
42603;BME280;28233;55.748;48.752;2023-03-14T02:00:39;99560.41;;;-5.58;86.75
42603;BME280;28233;55.748;48.752;2023-03-14T02:02:47;99570.94;;;-5.56;87.10
42603;BME280;28233;55.748;48.752;2023-03-14T02:04:54;99573.81;;;-5.58;86.50
42603;BME280;28233;55.748;48.752;2023-03-14T02:07:09;99572.19;;;-5.59;86.61
42603;BME280;28233;55.748;48.752;2023-03-14T02:09:14;99575.06;;;-5.60;86.26
42603;BME280;28233;55.748;48.752;2023-03-14T02:11:17;99582.06;;;-5.59;85.90
42603;BME280;28233;55.748;48.752;2023-03-14T02:13:21;99576.91;;;-5.61;86.40
42603;BME280;28233;55.748;48.752;2023-03-14T02:15:24;99578.19;;;-5.63;86.70
42603;BME280;28233;55.748;48.752;2023-03-14T02:17:27;99582.09;;;-5.66;86.65
42603;BME280;28233;55.748;48.752;2023-03-14T02:19:54;99582.53;;;-5.69;86.31
42603;BME280;28233;55.748;48.752;2023-03-14T02:22:07;99587.28;;;-5.71;86.36
42603;BME280;28233;55.748;48.752;2023-03-14T02:26:30;99600.69;;;-5.78;87.34
42603;BME280;28233;55.748;48.752;2023-03-14T02:28:34;99603.38;;;-5.78;86.78
42603;BME280;28233;55.748;48.752;2023-03-14T02:30:37;99605.22;;;-5.78;86.57
42603;BME280;28233;55.748;48.752;2023-03-14T02:32:43;99613.47;;;-5.80;87.21
42603;BME280;28233;55.748;48.752;2023-03-14T02:34:52;99620.44;;;-5.79;87.46
42603;BME280;28233;55.748;48.752;2023-03-14T02:36:56;99616.13;;;-5.80;86.54
42603;BME280;28233;55.748;48.752;2023-03-14T02:39:17;99616.94;;;-5.79;87.28
42603;BME280;28233;55.748;48.752;2023-03-14T02:41:22;99624.16;;;-5.80;86.55
42603;BME280;28233;55.748;48.752;2023-03-14T02:43:24;99613.06;;;-5.83;87.02
42603;BME280;28233;55.748;48.752;2023-03-14T02:47:44;99621.50;;;-5.86;87.65
42603;BME280;28233;55.748;48.752;2023-03-14T02:49:51;99629.34;;;-5.85;87.19
42603;BME280;28233;55.748;48.752;2023-03-14T02:51:55;99634.69;;;-5.85;87.29
42603;BME280;28233;55.748;48.752;2023-03-14T02:53:58;99639.00;;;-5.84;87.38
42603;BME280;28233;55.748;48.752;2023-03-14T02:56:01;99629.09;;;-5.83;87.36
42603;BME280;28233;55.748;48.752;2023-03-14T02:58:04;99639.81;;;-5.83;87.22
42603;BME280;28233;55.748;48.752;2023-03-14T03:00:07;99635.91;;;-5.81;87.89
42603;BME280;28233;55.748;48.752;2023-03-14T03:02:10;99644.75;;;-5.80;87.17
42603;BME280;28233;55.748;48.752;2023-03-14T03:04:13;99639.19;;;-5.79;86.97
42603;BME280;28233;55.748;48.752;2023-03-14T03:06:16;99648.25;;;-5.80;86.48
42603;BME280;28233;55.748;48.752;2023-03-14T03:08:19;99655.47;;;-5.80;87.19
42603;BME280;28233;55.748;48.752;2023-03-14T03:10:23;99654.41;;;-5.79;87.01
42603;BME280;28233;55.748;48.752;2023-03-14T03:12:25;99653.41;;;-5.78;87.68
42603;BME280;28233;55.748;48.752;2023-03-14T03:14:28;99657.50;;;-5.76;86.92
42603;BME280;28233;55.748;48.752;2023-03-14T03:16:31;99669.03;;;-5.75;87.14
42603;BME280;28233;55.748;48.752;2023-03-14T03:18:33;99647.41;;;-5.74;87.64
42603;BME280;28233;55.748;48.752;2023-03-14T03:20:36;99661.38;;;-5.71;87.33
42603;BME280;28233;55.748;48.752;2023-03-14T03:22:39;99670.88;;;-5.69;86.59
42603;BME280;28233;55.748;48.752;2023-03-14T03:24:42;99676.22;;;-5.69;86.81
42603;BME280;28233;55.748;48.752;2023-03-14T03:26:46;99678.47;;;-5.66;86.31
42603;BME280;28233;55.748;48.752;2023-03-14T03:28:50;99688.75;;;-5.63;86.98
42603;BME280;28233;55.748;48.752;2023-03-14T03:30:54;99697.38;;;-5.61;86.57
42603;BME280;28233;55.748;48.752;2023-03-14T03:32:56;99697.38;;;-5.61;87.03
42603;BME280;28233;55.748;48.752;2023-03-14T03:34:59;99713.00;;;-5.58;86.48
42603;BME280;28233;55.748;48.752;2023-03-14T03:37:02;99704.34;;;-5.53;86.19
42603;BME280;28233;55.748;48.752;2023-03-14T03:39:05;99706.81;;;-5.52;86.66
42603;BME280;28233;55.748;48.752;2023-03-14T03:41:08;99711.75;;;-5.48;86.37
42603;BME280;28233;55.748;48.752;2023-03-14T03:43:10;99709.47;;;-5.45;86.10
42603;BME280;28233;55.748;48.752;2023-03-14T03:45:13;99714.59;;;-5.43;85.82
42603;BME280;28233;55.748;48.752;2023-03-14T03:47:16;99713.59;;;-5.42;85.87
42603;BME280;28233;55.748;48.752;2023-03-14T03:49:18;99716.88;;;-5.40;85.97
42603;BME280;28233;55.748;48.752;2023-03-14T03:51:21;99728.78;;;-5.36;86.12
42603;BME280;28233;55.748;48.752;2023-03-14T03:53:24;99734.13;;;-5.36;85.61
42603;BME280;28233;55.748;48.752;2023-03-14T03:55:35;99732.69;;;-5.32;85.18
42603;BME280;28233;55.748;48.752;2023-03-14T03:57:37;99730.81;;;-5.32;85.95
42603;BME280;28233;55.748;48.752;2023-03-14T03:59:40;99729.59;;;-5.29;85.75
42603;BME280;28233;55.748;48.752;2023-03-14T04:01:43;99738.22;;;-5.27;85.90
42603;BME280;28233;55.748;48.752;2023-03-14T04:03:46;99735.75;;;-5.22;86.29
42603;BME280;28233;55.748;48.752;2023-03-14T04:06:03;99735.13;;;-5.17;85.95
42603;BME280;28233;55.748;48.752;2023-03-14T04:08:06;99745.78;;;-5.11;85.61
42603;BME280;28233;55.748;48.752;2023-03-14T04:10:09;99744.31;;;-5.06;86.10
42603;BME280;28233;55.748;48.752;2023-03-14T04:12:12;99738.94;;;-5.00;86.41
42603;BME280;28233;55.748;48.752;2023-03-14T04:14:15;99750.63;;;-4.94;86.00
42603;BME280;28233;55.748;48.752;2023-03-14T04:16:23;99763.41;;;-4.90;85.84
42603;BME280;28233;55.748;48.752;2023-03-14T04:18:27;99774.91;;;-4.82;86.07
42603;BME280;28233;55.748;48.752;2023-03-14T04:20:29;99776.13;;;-4.78;86.05
42603;BME280;28233;55.748;48.752;2023-03-14T04:22:32;99770.97;;;-4.80;85.57
42603;BME280;28233;55.748;48.752;2023-03-14T04:24:35;99771.34;;;-4.70;85.55
42603;BME280;28233;55.748;48.752;2023-03-14T04:26:37;99780.38;;;-4.64;85.80
42603;BME280;28233;55.748;48.752;2023-03-14T04:28:40;99784.63;;;-4.56;85.25
42603;BME280;28233;55.748;48.752;2023-03-14T04:30:43;99785.84;;;-4.52;85.13
42603;BME280;28233;55.748;48.752;2023-03-14T04:32:45;99792.66;;;-4.50;84.79
42603;BME280;28233;55.748;48.752;2023-03-14T04:34:48;99790.13;;;-4.44;84.31
42603;BME280;28233;55.748;48.752;2023-03-14T04:36:51;99790.75;;;-4.42;84.57
42603;BME280;28233;55.748;48.752;2023-03-14T04:38:53;99800.00;;;-4.38;83.98
42603;BME280;28233;55.748;48.752;2023-03-14T04:40:56;99811.94;;;-4.34;84.15
42603;BME280;28233;55.748;48.752;2023-03-14T04:42:59;99801.59;;;-4.31;83.73
42603;BME280;28233;55.748;48.752;2023-03-14T04:45:02;99806.53;;;-4.28;83.29
42603;BME280;28233;55.748;48.752;2023-03-14T04:47:05;99809.59;;;-4.24;83.54
42603;BME280;28233;55.748;48.752;2023-03-14T04:49:07;99820.28;;;-4.17;83.25
42603;BME280;28233;55.748;48.752;2023-03-14T04:51:10;99819.84;;;-4.14;83.13
42603;BME280;28233;55.748;48.752;2023-03-14T04:53:13;99828.28;;;-4.11;82.51
42603;BME280;28233;55.748;48.752;2023-03-14T04:55:16;99832.84;;;-4.11;83.29
42603;BME280;28233;55.748;48.752;2023-03-14T04:57:19;99832.59;;;-4.10;83.17
42603;BME280;28233;55.748;48.752;2023-03-14T04:59:22;99837.75;;;-4.08;82.97
42603;BME280;28233;55.748;48.752;2023-03-14T05:01:24;99846.78;;;-4.03;82.88
42603;BME280;28233;55.748;48.752;2023-03-14T05:03:27;99840.59;;;-4.03;82.45
42603;BME280;28233;55.748;48.752;2023-03-14T05:05:30;99843.44;;;-3.98;82.67
42603;BME280;28233;55.748;48.752;2023-03-14T05:07:32;99838.50;;;-3.94;82.07
42603;BME280;28233;55.748;48.752;2023-03-14T05:09:35;99833.66;;;-3.86;82.37
42603;BME280;28233;55.748;48.752;2023-03-14T05:11:38;99841.88;;;-3.80;81.89
42603;BME280;28233;55.748;48.752;2023-03-14T05:13:40;99838.31;;;-3.74;81.65
42603;BME280;28233;55.748;48.752;2023-03-14T05:15:43;99840.56;;;-3.71;81.78
42603;BME280;28233;55.748;48.752;2023-03-14T05:17:46;99819.84;;;-3.64;81.35
42603;BME280;28233;55.748;48.752;2023-03-14T05:19:48;99829.69;;;-3.58;80.97
42603;BME280;28233;55.748;48.752;2023-03-14T05:21:51;99829.41;;;-3.50;80.52
42603;BME280;28233;55.748;48.752;2023-03-14T05:23:54;99826.41;;;-3.42;80.62
42603;BME280;28233;55.748;48.752;2023-03-14T05:25:56;99833.22;;;-3.39;80.68
42603;BME280;28233;55.748;48.752;2023-03-14T05:27:59;99841.22;;;-3.32;80.05
42603;BME280;28233;55.748;48.752;2023-03-14T05:30:03;99850.25;;;-3.27;79.95
42603;BME280;28233;55.748;48.752;2023-03-14T05:32:06;99846.72;;;-3.27;79.37
42603;BME280;28233;55.748;48.752;2023-03-14T05:34:09;99843.38;;;-3.23;78.80
42603;BME280;28233;55.748;48.752;2023-03-14T05:36:11;99849.75;;;-3.17;79.10
42603;BME280;28233;55.748;48.752;2023-03-14T05:38:14;99847.81;;;-3.10;78.73
42603;BME280;28233;55.748;48.752;2023-03-14T05:40:17;99854.34;;;-3.06;78.64
42603;BME280;28233;55.748;48.752;2023-03-14T05:42:20;99862.00;;;-3.03;78.64
42603;BME280;28233;55.748;48.752;2023-03-14T05:44:23;99871.47;;;-3.00;78.38
42603;BME280;28233;55.748;48.752;2023-03-14T05:46:25;99865.63;;;-2.97;77.81
42603;BME280;28233;55.748;48.752;2023-03-14T05:48:28;99859.78;;;-2.94;77.72
42603;BME280;28233;55.748;48.752;2023-03-14T05:50:31;99859.22;;;-2.96;77.18
42603;BME280;28233;55.748;48.752;2023-03-14T05:52:33;99861.81;;;-2.89;77.61
42603;BME280;28233;55.748;48.752;2023-03-14T05:54:36;99865.03;;;-2.81;77.65
42603;BME280;28233;55.748;48.752;2023-03-14T05:56:39;99864.34;;;-2.76;76.78
42603;BME280;28233;55.748;48.752;2023-03-14T05:58:41;99858.28;;;-2.71;76.78
42603;BME280;28233;55.748;48.752;2023-03-14T06:00:44;99871.06;;;-2.67;77.06
42603;BME280;28233;55.748;48.752;2023-03-14T06:02:47;99866.63;;;-2.61;76.34
42603;BME280;28233;55.748;48.752;2023-03-14T06:04:50;99869.09;;;-2.60;76.03
42603;BME280;28233;55.748;48.752;2023-03-14T06:06:52;99870.66;;;-2.52;75.74
42603;BME280;28233;55.748;48.752;2023-03-14T06:08:55;99869.75;;;-2.46;76.36
42603;BME280;28233;55.748;48.752;2023-03-14T06:10:57;99877.16;;;-2.41;75.95
42603;BME280;28233;55.748;48.752;2023-03-14T06:13:01;99865.31;;;-2.40;75.71
42603;BME280;28233;55.748;48.752;2023-03-14T06:15:04;99883.25;;;-2.34;75.55
42603;BME280;28233;55.748;48.752;2023-03-14T06:17:06;99872.63;;;-2.29;75.59
42603;BME280;28233;55.748;48.752;2023-03-14T06:19:09;99879.13;;;-2.18;75.52
42603;BME280;28233;55.748;48.752;2023-03-14T06:21:12;99870.69;;;-2.10;75.98
42603;BME280;28233;55.748;48.752;2023-03-14T06:23:15;99887.56;;;-2.03;76.31
42603;BME280;28233;55.748;48.752;2023-03-14T06:25:18;99879.28;;;-2.01;75.87
42603;BME280;28233;55.748;48.752;2023-03-14T06:27:22;99878.00;;;-1.99;75.56
42603;BME280;28233;55.748;48.752;2023-03-14T06:29:25;99878.50;;;-1.90;76.30
42603;BME280;28233;55.748;48.752;2023-03-14T06:31:31;99881.91;;;-1.83;74.84
42603;BME280;28233;55.748;48.752;2023-03-14T06:33:34;99870.78;;;-1.75;75.24
42603;BME280;28233;55.748;48.752;2023-03-14T06:35:37;99879.56;;;-1.67;75.33
42603;BME280;28233;55.748;48.752;2023-03-14T06:37:40;99883.56;;;-1.58;75.33
42603;BME280;28233;55.748;48.752;2023-03-14T06:39:43;99884.38;;;-1.58;74.94
42603;BME280;28233;55.748;48.752;2023-03-14T06:41:46;99888.50;;;-1.55;74.67
42603;BME280;28233;55.748;48.752;2023-03-14T06:43:49;99886.75;;;-1.50;74.12
42603;BME280;28233;55.748;48.752;2023-03-14T06:45:52;99887.91;;;-1.45;74.15
42603;BME280;28233;55.748;48.752;2023-03-14T06:47:55;99910.91;;;-1.31;74.06
42603;BME280;28233;55.748;48.752;2023-03-14T06:49:57;99899.03;;;-1.30;73.16
42603;BME280;28233;55.748;48.752;2023-03-14T06:52:00;99913.22;;;-1.23;73.44
42603;BME280;28233;55.748;48.752;2023-03-14T06:54:03;99921.09;;;-1.21;73.39
42603;BME280;28233;55.748;48.752;2023-03-14T06:56:06;99905.72;;;-1.21;73.24
42603;BME280;28233;55.748;48.752;2023-03-14T06:58:09;99918.28;;;-1.15;73.02
42603;BME280;28233;55.748;48.752;2023-03-14T07:00:13;99921.41;;;-1.06;73.04
42603;BME280;28233;55.748;48.752;2023-03-14T07:02:16;99918.59;;;-0.99;72.97
42603;BME280;28233;55.748;48.752;2023-03-14T07:04:19;99928.78;;;-0.90;73.43
42603;BME280;28233;55.748;48.752;2023-03-14T07:06:22;99929.38;;;-0.88;72.34
42603;BME280;28233;55.748;48.752;2023-03-14T07:08:25;99927.38;;;-0.80;72.95
42603;BME280;28233;55.748;48.752;2023-03-14T07:10:27;99935.34;;;-0.74;72.99
42603;BME280;28233;55.748;48.752;2023-03-14T07:12:30;99925.38;;;-0.73;71.80
42603;BME280;28233;55.748;48.752;2023-03-14T07:14:33;99933.13;;;-0.65;72.13
42603;BME280;28233;55.748;48.752;2023-03-14T07:16:36;99927.00;;;-0.60;72.27
42603;BME280;28233;55.748;48.752;2023-03-14T07:18:39;99922.66;;;-0.61;72.18
42603;BME280;28233;55.748;48.752;2023-03-14T07:20:41;99926.41;;;-0.51;71.54
42603;BME280;28233;55.748;48.752;2023-03-14T07:22:46;99931.66;;;-0.44;71.38
42603;BME280;28233;55.748;48.752;2023-03-14T07:24:49;99926.53;;;-0.29;72.24
42603;BME280;28233;55.748;48.752;2023-03-14T07:26:52;99928.53;;;-0.24;72.30
42603;BME280;28233;55.748;48.752;2023-03-14T07:28:56;99936.50;;;-0.17;71.66
42603;BME280;28233;55.748;48.752;2023-03-14T07:30:59;99927.75;;;-0.08;71.52
42603;BME280;28233;55.748;48.752;2023-03-14T07:33:02;99935.63;;;-0.06;71.22
42603;BME280;28233;55.748;48.752;2023-03-14T07:35:05;99941.13;;;-0.01;70.67
42603;BME280;28233;55.748;48.752;2023-03-14T07:37:09;99937.38;;;0.00;69.62
42603;BME280;28233;55.748;48.752;2023-03-14T07:39:12;99913.31;;;-0.02;68.95
42603;BME280;28233;55.748;48.752;2023-03-14T07:41:14;99935.66;;;0.11;68.75
42603;BME280;28233;55.748;48.752;2023-03-14T07:43:17;99924.28;;;0.09;68.79
42603;BME280;28233;55.748;48.752;2023-03-14T07:45:20;99934.94;;;0.15;68.25
42603;BME280;28233;55.748;48.752;2023-03-14T07:47:23;99927.91;;;0.14;68.32
42603;BME280;28233;55.748;48.752;2023-03-14T07:49:25;99939.19;;;0.11;68.47
42603;BME280;28233;55.748;48.752;2023-03-14T07:51:28;99938.47;;;0.16;68.09
42603;BME280;28233;55.748;48.752;2023-03-14T07:53:31;99943.13;;;0.20;68.03
42603;BME280;28233;55.748;48.752;2023-03-14T07:55:33;99938.22;;;0.17;67.38
42603;BME280;28233;55.748;48.752;2023-03-14T07:57:36;99944.28;;;0.25;68.19
42603;BME280;28233;55.748;48.752;2023-03-14T07:59:39;99928.09;;;0.25;67.21
42603;BME280;28233;55.748;48.752;2023-03-14T08:01:42;99927.66;;;0.33;67.38
42603;BME280;28233;55.748;48.752;2023-03-14T08:03:45;99930.22;;;0.39;67.89
42603;BME280;28233;55.748;48.752;2023-03-14T08:05:49;99928.84;;;0.54;66.25
42603;BME280;28233;55.748;48.752;2023-03-14T08:07:52;99922.78;;;0.63;67.41
42603;BME280;28233;55.748;48.752;2023-03-14T08:09:55;99914.91;;;0.62;66.37
42603;BME280;28233;55.748;48.752;2023-03-14T08:11:57;99912.53;;;0.66;65.67
42603;BME280;28233;55.748;48.752;2023-03-14T08:14:00;99916.63;;;0.68;65.34
42603;BME280;28233;55.748;48.752;2023-03-14T08:16:04;99911.53;;;0.72;65.42
42603;BME280;28233;55.748;48.752;2023-03-14T08:18:06;99910.72;;;0.71;64.79
42603;BME280;28233;55.748;48.752;2023-03-14T08:20:10;99908.03;;;0.71;64.36
42603;BME280;28233;55.748;48.752;2023-03-14T08:22:13;99899.56;;;0.84;64.50
42603;BME280;28233;55.748;48.752;2023-03-14T08:24:18;99905.59;;;0.92;64.33
42603;BME280;28233;55.748;48.752;2023-03-14T08:26:21;99908.66;;;0.95;63.97
42603;BME280;28233;55.748;48.752;2023-03-14T08:28:24;99907.16;;;1.04;64.40
42603;BME280;28233;55.748;48.752;2023-03-14T08:30:32;99896.41;;;1.10;63.41
42603;BME280;28233;55.748;48.752;2023-03-14T08:32:36;99897.22;;;1.10;63.17
42603;BME280;28233;55.748;48.752;2023-03-14T08:34:38;99905.91;;;1.12;63.01
42603;BME280;28233;55.748;48.752;2023-03-14T08:36:42;99906.22;;;1.16;61.55
42603;BME280;28233;55.748;48.752;2023-03-14T08:38:44;99902.22;;;1.18;61.27
42603;BME280;28233;55.748;48.752;2023-03-14T08:40:47;99909.13;;;1.09;60.36
42603;BME280;28233;55.748;48.752;2023-03-14T08:42:50;99911.88;;;1.14;60.48
42603;BME280;28233;55.748;48.752;2023-03-14T08:44:53;99919.50;;;1.17;61.20
42603;BME280;28233;55.748;48.752;2023-03-14T08:46:55;99912.47;;;1.16;60.92
42603;BME280;28233;55.748;48.752;2023-03-14T08:48:58;99899.50;;;1.18;59.44
42603;BME280;28233;55.748;48.752;2023-03-14T08:51:08;99895.59;;;1.09;60.44
42603;BME280;28233;55.748;48.752;2023-03-14T08:53:13;99906.59;;;1.24;61.53
42603;BME280;28233;55.748;48.752;2023-03-14T08:55:16;99909.69;;;1.33;61.13
42603;BME280;28233;55.748;48.752;2023-03-14T08:57:18;99912.41;;;1.33;61.02
42603;BME280;28233;55.748;48.752;2023-03-14T08:59:22;99910.59;;;1.39;60.62
42603;BME280;28233;55.748;48.752;2023-03-14T09:01:24;99904.50;;;1.48;60.33
42603;BME280;28233;55.748;48.752;2023-03-14T09:03:28;99911.97;;;1.63;60.82
42603;BME280;28233;55.748;48.752;2023-03-14T09:05:33;99896.84;;;1.67;59.22
42603;BME280;28233;55.748;48.752;2023-03-14T09:07:37;99898.22;;;1.70;58.77
42603;BME280;28233;55.748;48.752;2023-03-14T09:09:40;99902.22;;;1.89;58.58
42603;BME280;28233;55.748;48.752;2023-03-14T09:11:42;99908.50;;;1.95;57.29
42603;BME280;28233;55.748;48.752;2023-03-14T09:13:45;99895.94;;;1.84;58.61
42603;BME280;28233;55.748;48.752;2023-03-14T09:15:55;99903.81;;;1.85;59.42
42603;BME280;28233;55.748;48.752;2023-03-14T09:17:59;99905.66;;;1.80;59.58
42603;BME280;28233;55.748;48.752;2023-03-14T09:20:03;99916.84;;;1.88;58.70
42603;BME280;28233;55.748;48.752;2023-03-14T09:22:09;99914.63;;;2.07;59.22
42603;BME280;28233;55.748;48.752;2023-03-14T09:24:11;99920.13;;;2.18;58.33
42603;BME280;28233;55.748;48.752;2023-03-14T09:26:14;99922.94;;;2.28;56.31
42603;BME280;28233;55.748;48.752;2023-03-14T09:28:17;99913.56;;;2.41;56.26
42603;BME280;28233;55.748;48.752;2023-03-14T09:30:20;99915.00;;;2.53;56.44
42603;BME280;28233;55.748;48.752;2023-03-14T09:32:23;99922.22;;;2.75;56.21
42603;BME280;28233;55.748;48.752;2023-03-14T09:34:26;99918.81;;;2.90;54.36
42603;BME280;28233;55.748;48.752;2023-03-14T09:36:31;99930.00;;;2.99;53.89
42603;BME280;28233;55.748;48.752;2023-03-14T09:38:34;99922.22;;;3.12;53.31
42603;BME280;28233;55.748;48.752;2023-03-14T09:40:38;99914.06;;;3.12;52.07
42603;BME280;28233;55.748;48.752;2023-03-14T09:42:42;99911.44;;;3.23;51.98
42603;BME280;28233;55.748;48.752;2023-03-14T09:45:00;99913.38;;;3.37;51.56
42603;BME280;28233;55.748;48.752;2023-03-14T09:47:06;99922.41;;;3.48;51.14
42603;BME280;28233;55.748;48.752;2023-03-14T09:49:33;99913.97;;;3.45;48.05
42603;BME280;28233;55.748;48.752;2023-03-14T09:51:36;99893.78;;;3.25;50.02
42603;BME280;28233;55.748;48.752;2023-03-14T09:53:45;99896.22;;;3.27;50.43
42603;BME280;28233;55.748;48.752;2023-03-14T09:55:49;99899.28;;;3.41;49.71
42603;BME280;28233;55.748;48.752;2023-03-14T09:58:01;99894.16;;;3.49;49.24
42603;BME280;28233;55.748;48.752;2023-03-14T10:00:23;99887.28;;;3.31;48.46
42603;BME280;28233;55.748;48.752;2023-03-14T10:02:34;99892.19;;;3.34;48.62
42603;BME280;28233;55.748;48.752;2023-03-14T10:04:38;99889.78;;;3.43;49.90
42603;BME280;28233;55.748;48.752;2023-03-14T10:06:43;99899.59;;;3.49;50.08
42603;BME280;28233;55.748;48.752;2023-03-14T10:08:46;99893.09;;;3.55;50.62
42603;BME280;28233;55.748;48.752;2023-03-14T10:10:49;99900.16;;;3.56;50.72
42603;BME280;28233;55.748;48.752;2023-03-14T10:12:58;99892.88;;;3.72;50.71
42603;BME280;28233;55.748;48.752;2023-03-14T10:15:07;99896.16;;;3.69;50.33
42603;BME280;28233;55.748;48.752;2023-03-14T10:17:13;99901.59;;;3.74;50.77
42603;BME280;28233;55.748;48.752;2023-03-14T10:19:17;99906.16;;;3.64;50.23
42603;BME280;28233;55.748;48.752;2023-03-14T10:21:28;99908.38;;;3.72;50.58
42603;BME280;28233;55.748;48.752;2023-03-14T10:23:33;99899.69;;;3.80;50.51
42603;BME280;28233;55.748;48.752;2023-03-14T10:25:40;99927.44;;;3.87;50.49
42603;BME280;28233;55.748;48.752;2023-03-14T10:27:43;99925.03;;;4.01;50.63
42603;BME280;28233;55.748;48.752;2023-03-14T10:29:56;99928.31;;;4.18;49.34
42603;BME280;28233;55.748;48.752;2023-03-14T10:32:02;99935.16;;;4.21;48.95
42603;BME280;28233;55.748;48.752;2023-03-14T10:34:20;99926.13;;;4.00;49.78
42603;BME280;28233;55.748;48.752;2023-03-14T10:36:27;99930.41;;;3.86;50.66
42603;BME280;28233;55.748;48.752;2023-03-14T10:38:34;99938.03;;;3.84;51.18
42603;BME280;28233;55.748;48.752;2023-03-14T10:40:40;99937.81;;;3.95;50.73
42603;BME280;28233;55.748;48.752;2023-03-14T10:42:43;99946.47;;;3.92;51.21
42603;BME280;28233;55.748;48.752;2023-03-14T10:44:57;99945.69;;;3.97;50.70
42603;BME280;28233;55.748;48.752;2023-03-14T10:47:05;99942.72;;;4.03;50.54
42603;BME280;28233;55.748;48.752;2023-03-14T10:49:25;99945.09;;;3.79;49.24
42603;BME280;28233;55.748;48.752;2023-03-14T10:51:30;99951.09;;;3.81;50.40
42603;BME280;28233;55.748;48.752;2023-03-14T10:53:42;99938.97;;;3.47;49.73
42603;BME280;28233;55.748;48.752;2023-03-14T10:55:45;99935.16;;;3.48;50.84
42603;BME280;28233;55.748;48.752;2023-03-14T10:57:48;99933.78;;;3.40;51.68
42603;BME280;28233;55.748;48.752;2023-03-14T10:59:52;99922.63;;;3.36;51.54
42603;BME280;28233;55.748;48.752;2023-03-14T11:04:55;99931.34;;;3.44;53.85
42603;BME280;28233;55.748;48.752;2023-03-14T11:11:24;99912.44;;;3.11;51.53
42603;BME280;28233;55.748;48.752;2023-03-14T11:13:44;99912.25;;;3.23;51.42
42603;BME280;28233;55.748;48.752;2023-03-14T11:20:55;99911.94;;;2.77;51.64